sensor_id;sensor_type;location;lat;lon;timestamp;P1;durP1;ratioP1;P2;durP2;ratioP2
13797;SDS011;6970;51.340;3.240;2022-09-28T01:35:05;2.90;;;0.60;;
13797;SDS011;6970;51.340;3.240;2022-09-28T01:40:21;1.40;;;0.50;;
13797;SDS011;6970;51.340;3.240;2022-09-28T01:42:53;2.03;;;0.53;;
13797;SDS011;6970;51.340;3.240;2022-09-28T01:45:36;1.40;;;0.50;;
13797;SDS011;6970;51.340;3.240;2022-09-28T01:50:45;0.83;;;0.40;;
13797;SDS011;6970;51.340;3.240;2022-09-28T01:53:19;0.90;;;0.40;;
13797;SDS011;6970;51.340;3.240;2022-09-28T01:55:52;1.53;;;0.80;;
13797;SDS011;6970;51.340;3.240;2022-09-28T01:58:44;0.83;;;0.80;;
13797;SDS011;6970;51.340;3.240;2022-09-28T02:01:44;1.93;;;0.80;;
13797;SDS011;6970;51.340;3.240;2022-09-28T02:04:18;2.07;;;1.03;;
13797;SDS011;6970;51.340;3.240;2022-09-28T02:06:56;1.63;;;0.73;;
13797;SDS011;6970;51.340;3.240;2022-09-28T02:09:30;2.13;;;0.70;;
13797;SDS011;6970;51.340;3.240;2022-09-28T02:12:18;1.77;;;0.70;;
13797;SDS011;6970;51.340;3.240;2022-09-28T02:15:09;3.07;;;0.70;;
13797;SDS011;6970;51.340;3.240;2022-09-28T02:20:14;1.43;;;0.60;;
13797;SDS011;6970;51.340;3.240;2022-09-28T02:22:48;3.70;;;1.00;;
13797;SDS011;6970;51.340;3.240;2022-09-28T02:30:30;1.60;;;0.70;;
13797;SDS011;6970;51.340;3.240;2022-09-28T02:33:23;1.70;;;0.63;;
13797;SDS011;6970;51.340;3.240;2022-09-28T02:38:16;0.80;;;0.40;;
13797;SDS011;6970;51.340;3.240;2022-09-28T02:43:23;1.53;;;0.80;;
13797;SDS011;6970;51.340;3.240;2022-09-28T02:48:39;2.33;;;0.90;;
13797;SDS011;6970;51.340;3.240;2022-09-28T02:54:03;2.73;;;1.07;;
13797;SDS011;6970;51.340;3.240;2022-09-28T03:05:11;1.57;;;0.80;;
13797;SDS011;6970;51.340;3.240;2022-09-28T03:07:50;1.40;;;0.70;;
13797;SDS011;6970;51.340;3.240;2022-09-28T03:12:58;3.50;;;1.20;;
13797;SDS011;6970;51.340;3.240;2022-09-28T03:15:29;4.20;;;1.30;;
13797;SDS011;6970;51.340;3.240;2022-09-28T03:17:58;2.33;;;1.30;;
13797;SDS011;6970;51.340;3.240;2022-09-28T03:23:00;3.40;;;2.10;;
13797;SDS011;6970;51.340;3.240;2022-09-28T03:25:50;3.27;;;1.67;;
13797;SDS011;6970;51.340;3.240;2022-09-28T03:28:17;2.50;;;1.80;;
13797;SDS011;6970;51.340;3.240;2022-09-28T03:30:44;2.90;;;1.77;;
13797;SDS011;6970;51.340;3.240;2022-09-28T03:38:16;2.77;;;1.97;;
13797;SDS011;6970;51.340;3.240;2022-09-28T03:40:54;2.13;;;1.90;;
13797;SDS011;6970;51.340;3.240;2022-09-28T03:43:22;5.13;;;1.70;;
13797;SDS011;6970;51.340;3.240;2022-09-28T03:45:53;2.23;;;2.03;;
13797;SDS011;6970;51.340;3.240;2022-09-28T03:48:25;3.60;;;2.03;;
13797;SDS011;6970;51.340;3.240;2022-09-28T03:51:02;3.03;;;1.93;;
13797;SDS011;6970;51.340;3.240;2022-09-28T03:53:34;2.33;;;2.20;;
13797;SDS011;6970;51.340;3.240;2022-09-28T03:56:07;2.57;;;2.27;;
13797;SDS011;6970;51.340;3.240;2022-09-28T03:58:38;3.07;;;2.00;;
13797;SDS011;6970;51.340;3.240;2022-09-28T04:03:45;3.10;;;2.10;;
13797;SDS011;6970;51.340;3.240;2022-09-28T04:08:43;5.00;;;2.43;;
13797;SDS011;6970;51.340;3.240;2022-09-28T04:11:10;3.03;;;2.20;;
13797;SDS011;6970;51.340;3.240;2022-09-28T04:13:37;2.50;;;2.20;;
13797;SDS011;6970;51.340;3.240;2022-09-28T04:16:04;3.60;;;2.43;;
13797;SDS011;6970;51.340;3.240;2022-09-28T04:18:32;2.63;;;2.40;;
13797;SDS011;6970;51.340;3.240;2022-09-28T04:21:05;2.97;;;2.70;;
13797;SDS011;6970;51.340;3.240;2022-09-28T04:23:37;4.33;;;2.30;;
13797;SDS011;6970;51.340;3.240;2022-09-28T04:26:13;4.77;;;2.17;;
13797;SDS011;6970;51.340;3.240;2022-09-28T04:28:45;3.43;;;2.50;;
13797;SDS011;6970;51.340;3.240;2022-09-28T04:31:49;2.70;;;2.00;;
13797;SDS011;6970;51.340;3.240;2022-09-28T04:34:20;2.40;;;2.20;;
13797;SDS011;6970;51.340;3.240;2022-09-28T04:39:21;3.90;;;2.30;;
13797;SDS011;6970;51.340;3.240;2022-09-28T04:41:48;3.57;;;2.30;;
13797;SDS011;6970;51.340;3.240;2022-09-28T04:44:16;3.93;;;2.67;;
13797;SDS011;6970;51.340;3.240;2022-09-28T04:46:46;4.00;;;2.37;;
13797;SDS011;6970;51.340;3.240;2022-09-28T04:49:14;3.97;;;2.60;;
13797;SDS011;6970;51.340;3.240;2022-09-28T04:51:43;4.23;;;3.27;;
13797;SDS011;6970;51.340;3.240;2022-09-28T04:54:12;4.57;;;2.83;;
13797;SDS011;6970;51.340;3.240;2022-09-28T04:56:41;6.47;;;3.20;;
13797;SDS011;6970;51.340;3.240;2022-09-28T04:59:09;4.57;;;3.10;;
13797;SDS011;6970;51.340;3.240;2022-09-28T05:01:41;4.73;;;2.83;;
13797;SDS011;6970;51.340;3.240;2022-09-28T05:06:38;6.00;;;3.33;;
13797;SDS011;6970;51.340;3.240;2022-09-28T05:09:05;5.60;;;3.63;;
13797;SDS011;6970;51.340;3.240;2022-09-28T05:11:35;3.67;;;3.30;;
13797;SDS011;6970;51.340;3.240;2022-09-28T05:14:03;4.40;;;3.93;;
13797;SDS011;6970;51.340;3.240;2022-09-28T05:16:32;6.17;;;3.80;;
13797;SDS011;6970;51.340;3.240;2022-09-28T05:19:00;6.10;;;3.37;;
13797;SDS011;6970;51.340;3.240;2022-09-28T05:21:30;4.93;;;3.60;;
13797;SDS011;6970;51.340;3.240;2022-09-28T05:24:00;3.97;;;3.67;;
13797;SDS011;6970;51.340;3.240;2022-09-28T05:26:35;7.67;;;3.93;;
13797;SDS011;6970;51.340;3.240;2022-09-28T05:29:02;3.23;;;2.87;;
13797;SDS011;6970;51.340;3.240;2022-09-28T05:31:29;5.60;;;4.37;;
13797;SDS011;6970;51.340;3.240;2022-09-28T05:36:27;4.20;;;3.57;;
13797;SDS011;6970;51.340;3.240;2022-09-28T05:38:58;4.13;;;3.53;;
13797;SDS011;6970;51.340;3.240;2022-09-28T05:41:25;3.57;;;3.27;;
13797;SDS011;6970;51.340;3.240;2022-09-28T05:46:24;4.30;;;3.77;;
13797;SDS011;6970;51.340;3.240;2022-09-28T05:51:21;4.57;;;3.60;;
13797;SDS011;6970;51.340;3.240;2022-09-28T05:53:53;6.77;;;3.47;;
13797;SDS011;6970;51.340;3.240;2022-09-28T05:56:22;4.73;;;4.07;;
13797;SDS011;6970;51.340;3.240;2022-09-28T06:01:21;7.37;;;4.00;;
13797;SDS011;6970;51.340;3.240;2022-09-28T06:03:51;3.40;;;3.10;;
13797;SDS011;6970;51.340;3.240;2022-09-28T06:06:21;5.07;;;3.40;;
13797;SDS011;6970;51.340;3.240;2022-09-28T06:08:51;5.23;;;3.23;;
13797;SDS011;6970;51.340;3.240;2022-09-28T06:13:54;5.07;;;3.23;;
13797;SDS011;6970;51.340;3.240;2022-09-28T06:16:24;3.13;;;1.33;;
13797;SDS011;6970;51.340;3.240;2022-09-28T06:18:51;2.20;;;1.30;;
13797;SDS011;6970;51.340;3.240;2022-09-28T06:21:21;3.97;;;1.10;;
13797;SDS011;6970;51.340;3.240;2022-09-28T06:23:49;2.03;;;0.87;;
13797;SDS011;6970;51.340;3.240;2022-09-28T06:26:17;4.07;;;1.03;;
13797;SDS011;6970;51.340;3.240;2022-09-28T06:28:45;2.20;;;0.50;;
13797;SDS011;6970;51.340;3.240;2022-09-28T06:31:13;4.00;;;0.60;;
13797;SDS011;6970;51.340;3.240;2022-09-28T06:33:42;1.57;;;0.40;;
13797;SDS011;6970;51.340;3.240;2022-09-28T06:36:11;3.43;;;0.60;;
13797;SDS011;6970;51.340;3.240;2022-09-28T06:41:09;0.93;;;0.20;;
13797;SDS011;6970;51.340;3.240;2022-09-28T06:43:37;2.33;;;1.07;;
13797;SDS011;6970;51.340;3.240;2022-09-28T06:46:07;1.87;;;0.87;;
13797;SDS011;6970;51.340;3.240;2022-09-28T06:48:36;1.73;;;0.70;;
13797;SDS011;6970;51.340;3.240;2022-09-28T06:51:03;2.43;;;0.87;;
13797;SDS011;6970;51.340;3.240;2022-09-28T06:53:30;4.33;;;0.90;;
13797;SDS011;6970;51.340;3.240;2022-09-28T06:56:03;1.00;;;0.90;;
13797;SDS011;6970;51.340;3.240;2022-09-28T06:58:32;2.60;;;1.17;;
13797;SDS011;6970;51.340;3.240;2022-09-28T07:00:59;4.33;;;0.80;;
13797;SDS011;6970;51.340;3.240;2022-09-28T07:03:26;3.23;;;0.80;;
13797;SDS011;6970;51.340;3.240;2022-09-28T07:05:53;3.83;;;0.67;;
13797;SDS011;6970;51.340;3.240;2022-09-28T07:08:22;4.70;;;0.87;;
13797;SDS011;6970;51.340;3.240;2022-09-28T07:10:52;2.23;;;0.70;;
13797;SDS011;6970;51.340;3.240;2022-09-28T07:13:25;1.70;;;0.80;;
13797;SDS011;6970;51.340;3.240;2022-09-28T07:16:13;3.83;;;0.67;;
13797;SDS011;6970;51.340;3.240;2022-09-28T07:18:40;1.77;;;0.93;;
13797;SDS011;6970;51.340;3.240;2022-09-28T07:21:07;3.07;;;1.10;;
13797;SDS011;6970;51.340;3.240;2022-09-28T07:23:47;1.83;;;0.93;;
13797;SDS011;6970;51.340;3.240;2022-09-28T07:26:19;6.27;;;1.07;;
13797;SDS011;6970;51.340;3.240;2022-09-28T07:31:22;1.83;;;0.90;;
13797;SDS011;6970;51.340;3.240;2022-09-28T07:38:52;2.50;;;0.90;;
13797;SDS011;6970;51.340;3.240;2022-09-28T07:41:22;3.20;;;1.00;;
13797;SDS011;6970;51.340;3.240;2022-09-28T07:43:58;2.10;;;0.90;;
13797;SDS011;6970;51.340;3.240;2022-09-28T07:46:32;3.30;;;1.00;;
13797;SDS011;6970;51.340;3.240;2022-09-28T07:49:00;2.83;;;1.10;;
13797;SDS011;6970;51.340;3.240;2022-09-28T07:51:39;3.40;;;1.07;;
13797;SDS011;6970;51.340;3.240;2022-09-28T07:54:11;2.77;;;1.20;;
13797;SDS011;6970;51.340;3.240;2022-09-28T07:56:41;2.53;;;1.07;;
13797;SDS011;6970;51.340;3.240;2022-09-28T07:59:10;2.33;;;0.70;;
13797;SDS011;6970;51.340;3.240;2022-09-28T08:01:43;1.10;;;0.50;;
13797;SDS011;6970;51.340;3.240;2022-09-28T08:04:12;1.55;;;0.60;;
13797;SDS011;6970;51.340;3.240;2022-09-28T08:06:45;2.28;;;0.60;;
13797;SDS011;6970;51.340;3.240;2022-09-28T08:11:46;2.53;;;0.40;;
13797;SDS011;6970;51.340;3.240;2022-09-28T08:14:18;1.15;;;0.57;;
13797;SDS011;6970;51.340;3.240;2022-09-28T08:16:47;2.35;;;0.57;;
13797;SDS011;6970;51.340;3.240;2022-09-28T08:19:18;2.25;;;0.45;;
13797;SDS011;6970;51.340;3.240;2022-09-28T08:21:52;2.25;;;0.70;;
13797;SDS011;6970;51.340;3.240;2022-09-28T08:27:06;0.90;;;0.60;;
13797;SDS011;6970;51.340;3.240;2022-09-28T08:29:35;1.38;;;0.82;;
13797;SDS011;6970;51.340;3.240;2022-09-28T08:32:03;1.38;;;0.73;;
13797;SDS011;6970;51.340;3.240;2022-09-28T08:34:34;0.90;;;0.28;;
13797;SDS011;6970;51.340;3.240;2022-09-28T08:37:06;1.38;;;0.57;;
13797;SDS011;6970;51.340;3.240;2022-09-28T08:39:36;1.08;;;0.50;;
13797;SDS011;6970;51.340;3.240;2022-09-28T08:45:09;2.03;;;0.57;;
13797;SDS011;6970;51.340;3.240;2022-09-28T08:47:50;1.58;;;0.57;;
13797;SDS011;6970;51.340;3.240;2022-09-28T08:50:51;2.70;;;0.88;;
13797;SDS011;6970;51.340;3.240;2022-09-28T08:56:09;1.27;;;0.50;;
13797;SDS011;6970;51.340;3.240;2022-09-28T08:58:41;1.90;;;0.63;;
13797;SDS011;6970;51.340;3.240;2022-09-28T09:01:13;2.97;;;0.80;;
13797;SDS011;6970;51.340;3.240;2022-09-28T09:03:44;1.77;;;0.75;;
13797;SDS011;6970;51.340;3.240;2022-09-28T09:09:37;1.73;;;0.50;;
13797;SDS011;6970;51.340;3.240;2022-09-28T09:12:09;2.45;;;0.63;;
13797;SDS011;6970;51.340;3.240;2022-09-28T09:20:55;1.83;;;0.50;;
13797;SDS011;6970;51.340;3.240;2022-09-28T09:26:16;1.73;;;0.57;;
13797;SDS011;6970;51.340;3.240;2022-09-28T09:29:09;1.08;;;0.60;;
13797;SDS011;6970;51.340;3.240;2022-09-28T09:48:46;1.77;;;0.50;;
13797;SDS011;6970;51.340;3.240;2022-09-28T09:54:14;2.70;;;0.50;;
13797;SDS011;6970;51.340;3.240;2022-09-28T09:56:57;1.77;;;0.77;;
13797;SDS011;6970;51.340;3.240;2022-09-28T09:59:30;2.47;;;0.57;;
13797;SDS011;6970;51.340;3.240;2022-09-28T10:02:00;1.50;;;0.52;;
13797;SDS011;6970;51.340;3.240;2022-09-28T10:04:41;2.15;;;0.60;;
13797;SDS011;6970;51.340;3.240;2022-09-28T10:07:15;0.88;;;0.60;;
13797;SDS011;6970;51.340;3.240;2022-09-28T10:09:54;2.03;;;0.60;;
13797;SDS011;6970;51.340;3.240;2022-09-28T10:12:23;1.42;;;0.50;;
13797;SDS011;6970;51.340;3.240;2022-09-28T10:14:51;1.60;;;0.40;;
13797;SDS011;6970;51.340;3.240;2022-09-28T10:17:20;1.52;;;0.50;;
13797;SDS011;6970;51.340;3.240;2022-09-28T10:19:52;1.25;;;0.40;;
13797;SDS011;6970;51.340;3.240;2022-09-28T10:22:23;1.08;;;0.40;;
13797;SDS011;6970;51.340;3.240;2022-09-28T10:24:53;0.60;;;0.43;;
13797;SDS011;6970;51.340;3.240;2022-09-28T10:35:10;0.70;;;0.38;;
13797;SDS011;6970;51.340;3.240;2022-09-28T10:37:48;0.88;;;0.55;;
13797;SDS011;6970;51.340;3.240;2022-09-28T10:51:12;1.55;;;0.63;;
13797;SDS011;6970;51.340;3.240;2022-09-28T10:53:39;1.65;;;0.70;;
13797;SDS011;6970;51.340;3.240;2022-09-28T10:56:06;4.53;;;0.82;;
13797;SDS011;6970;51.340;3.240;2022-09-28T10:58:45;0.70;;;0.60;;
13797;SDS011;6970;51.340;3.240;2022-09-28T11:01:15;1.65;;;0.50;;
13797;SDS011;6970;51.340;3.240;2022-09-28T11:03:55;0.73;;;0.63;;
13797;SDS011;6970;51.340;3.240;2022-09-28T11:06:29;2.60;;;0.40;;
13797;SDS011;6970;51.340;3.240;2022-09-28T11:09:02;2.70;;;0.90;;
13797;SDS011;6970;51.340;3.240;2022-09-28T11:11:38;3.25;;;1.02;;
13797;SDS011;6970;51.340;3.240;2022-09-28T11:14:16;3.85;;;0.60;;
13797;SDS011;6970;51.340;3.240;2022-09-28T11:17:14;1.63;;;0.50;;
13797;SDS011;6970;51.340;3.240;2022-09-28T11:19:59;1.35;;;0.60;;
13797;SDS011;6970;51.340;3.240;2022-09-28T11:25:38;2.20;;;0.50;;
13797;SDS011;6970;51.340;3.240;2022-09-28T11:28:14;2.70;;;0.50;;
13797;SDS011;6970;51.340;3.240;2022-09-28T11:30:55;1.33;;;0.60;;
13797;SDS011;6970;51.340;3.240;2022-09-28T11:33:34;1.95;;;0.47;;
13797;SDS011;6970;51.340;3.240;2022-09-28T11:39:43;4.10;;;1.50;;
13797;SDS011;6970;51.340;3.240;2022-09-28T11:44:48;11.13;;;1.80;;
13797;SDS011;6970;51.340;3.240;2022-09-28T11:49:47;2.87;;;0.70;;
13797;SDS011;6970;51.340;3.240;2022-09-28T11:52:20;2.97;;;0.90;;
13797;SDS011;6970;51.340;3.240;2022-09-28T11:57:49;2.20;;;0.80;;
13797;SDS011;6970;51.340;3.240;2022-09-28T12:00:39;21.60;;;3.00;;
13797;SDS011;6970;51.340;3.240;2022-09-28T12:03:13;11.93;;;3.03;;
13797;SDS011;6970;51.340;3.240;2022-09-28T12:06:05;6.73;;;1.13;;
13797;SDS011;6970;51.340;3.240;2022-09-28T12:08:34;4.17;;;0.90;;
13797;SDS011;6970;51.340;3.240;2022-09-28T12:13:52;2.10;;;0.80;;
13797;SDS011;6970;51.340;3.240;2022-09-28T12:19:39;2.57;;;0.40;;
13797;SDS011;6970;51.340;3.240;2022-09-28T12:22:23;3.17;;;1.33;;
13797;SDS011;6970;51.340;3.240;2022-09-28T12:24:57;4.63;;;1.07;;
13797;SDS011;6970;51.340;3.240;2022-09-28T12:27:34;3.00;;;0.97;;
13797;SDS011;6970;51.340;3.240;2022-09-28T12:30:40;9.83;;;2.03;;
13797;SDS011;6970;51.340;3.240;2022-09-28T12:35:46;7.80;;;0.80;;
13797;SDS011;6970;51.340;3.240;2022-09-28T12:45:24;17.13;;;2.43;;
13797;SDS011;6970;51.340;3.240;2022-09-28T12:59:35;2.83;;;0.50;;
13797;SDS011;6970;51.340;3.240;2022-09-28T13:21:40;0.40;;;0.30;;
13797;SDS011;6970;51.340;3.240;2022-09-28T13:24:18;2.13;;;0.67;;
13797;SDS011;6970;51.340;3.240;2022-09-28T13:27:00;1.80;;;0.40;;
13797;SDS011;6970;51.340;3.240;2022-09-28T13:29:31;5.27;;;1.10;;
13797;SDS011;6970;51.340;3.240;2022-09-28T13:32:00;2.37;;;0.77;;
13797;SDS011;6970;51.340;3.240;2022-09-28T13:34:32;1.23;;;0.50;;
13797;SDS011;6970;51.340;3.240;2022-09-28T13:42:58;3.90;;;0.70;;
13797;SDS011;6970;51.340;3.240;2022-09-28T13:47:56;1.13;;;0.40;;
13797;SDS011;6970;51.340;3.240;2022-09-28T14:02:08;1.67;;;0.90;;
13797;SDS011;6970;51.340;3.240;2022-09-28T14:05:02;1.23;;;0.60;;
13797;SDS011;6970;51.340;3.240;2022-09-28T14:12:51;1.70;;;0.73;;
13797;SDS011;6970;51.340;3.240;2022-09-28T14:21:06;1.07;;;0.60;;
13797;SDS011;6970;51.340;3.240;2022-09-28T14:29:37;2.40;;;1.10;;
13797;SDS011;6970;51.340;3.240;2022-09-28T14:31:47;2.87;;;0.77;;
13797;SDS011;6970;51.340;3.240;2022-09-28T14:34:24;2.43;;;0.90;;
13797;SDS011;6970;51.340;3.240;2022-09-28T14:40:25;1.70;;;1.30;;
13797;SDS011;6970;51.340;3.240;2022-09-28T14:44:02;2.10;;;1.10;;
13797;SDS011;6970;51.340;3.240;2022-09-28T14:46:26;1.10;;;0.70;;
13797;SDS011;6970;51.340;3.240;2022-09-28T14:49:02;1.20;;;0.60;;
13797;SDS011;6970;51.340;3.240;2022-09-28T14:51:43;0.73;;;0.73;;
13797;SDS011;6970;51.340;3.240;2022-09-28T15:04:41;2.13;;;0.60;;
13797;SDS011;6970;51.340;3.240;2022-09-28T15:07:21;1.23;;;0.70;;
13797;SDS011;6970;51.340;3.240;2022-09-28T15:09:50;1.77;;;1.00;;
13797;SDS011;6970;51.340;3.240;2022-09-28T15:12:20;3.43;;;0.80;;
13797;SDS011;6970;51.340;3.240;2022-09-28T15:17:29;3.73;;;1.10;;
13797;SDS011;6970;51.340;3.240;2022-09-28T15:20:21;4.10;;;0.90;;
13797;SDS011;6970;51.340;3.240;2022-09-28T15:22:52;3.10;;;0.80;;
13797;SDS011;6970;51.340;3.240;2022-09-28T15:25:25;3.57;;;0.70;;
13797;SDS011;6970;51.340;3.240;2022-09-28T15:27:58;1.30;;;0.60;;
13797;SDS011;6970;51.340;3.240;2022-09-28T15:30:33;1.40;;;0.70;;
13797;SDS011;6970;51.340;3.240;2022-09-28T15:33:02;3.67;;;1.10;;
13797;SDS011;6970;51.340;3.240;2022-09-28T15:35:52;2.47;;;0.67;;
13797;SDS011;6970;51.340;3.240;2022-09-28T15:38:27;7.00;;;1.13;;
13797;SDS011;6970;51.340;3.240;2022-09-28T15:40:55;2.33;;;0.93;;
13797;SDS011;6970;51.340;3.240;2022-09-28T15:43:24;3.90;;;1.10;;
13797;SDS011;6970;51.340;3.240;2022-09-28T15:45:55;1.73;;;1.00;;
13797;SDS011;6970;51.340;3.240;2022-09-28T15:48:50;3.43;;;1.43;;
13797;SDS011;6970;51.340;3.240;2022-09-28T15:51:21;1.83;;;1.13;;
13797;SDS011;6970;51.340;3.240;2022-09-28T15:53:59;5.97;;;1.47;;
13797;SDS011;6970;51.340;3.240;2022-09-28T15:56:28;2.50;;;1.37;;
13797;SDS011;6970;51.340;3.240;2022-09-28T16:01:41;2.37;;;1.30;;
13797;SDS011;6970;51.340;3.240;2022-09-28T16:09:57;0.67;;;0.50;;
13797;SDS011;6970;51.340;3.240;2022-09-28T16:12:47;0.90;;;0.80;;
13797;SDS011;6970;51.340;3.240;2022-09-28T16:15:32;1.80;;;0.70;;
13797;SDS011;6970;51.340;3.240;2022-09-28T16:20:47;1.33;;;0.90;;
13797;SDS011;6970;51.340;3.240;2022-09-28T16:23:20;2.10;;;1.20;;
13797;SDS011;6970;51.340;3.240;2022-09-28T16:25:58;3.43;;;2.50;;
13797;SDS011;6970;51.340;3.240;2022-09-28T16:31:05;2.43;;;1.40;;
13797;SDS011;6970;51.340;3.240;2022-09-28T16:36:24;2.47;;;2.20;;
13797;SDS011;6970;51.340;3.240;2022-09-28T16:38:55;3.57;;;1.70;;
13797;SDS011;6970;51.340;3.240;2022-09-28T16:41:23;1.93;;;1.83;;
13797;SDS011;6970;51.340;3.240;2022-09-28T16:43:53;3.53;;;2.30;;
13797;SDS011;6970;51.340;3.240;2022-09-28T16:46:26;2.13;;;1.70;;
13797;SDS011;6970;51.340;3.240;2022-09-28T16:48:57;1.80;;;1.53;;
13797;SDS011;6970;51.340;3.240;2022-09-28T16:51:25;2.03;;;1.63;;
13797;SDS011;6970;51.340;3.240;2022-09-28T16:53:52;3.23;;;1.90;;
13797;SDS011;6970;51.340;3.240;2022-09-28T16:56:37;3.20;;;1.67;;
13797;SDS011;6970;51.340;3.240;2022-09-28T16:59:04;2.27;;;1.53;;
13797;SDS011;6970;51.340;3.240;2022-09-28T17:01:31;3.60;;;1.60;;
13797;SDS011;6970;51.340;3.240;2022-09-28T17:03:58;2.13;;;1.43;;
13797;SDS011;6970;51.340;3.240;2022-09-28T17:06:25;1.60;;;1.50;;
13797;SDS011;6970;51.340;3.240;2022-09-28T17:08:52;1.77;;;1.50;;
13797;SDS011;6970;51.340;3.240;2022-09-28T17:11:23;2.70;;;1.83;;
13797;SDS011;6970;51.340;3.240;2022-09-28T17:13:51;1.43;;;1.30;;
13797;SDS011;6970;51.340;3.240;2022-09-28T17:16:22;1.80;;;1.30;;
13797;SDS011;6970;51.340;3.240;2022-09-28T17:19:16;3.73;;;1.43;;
13797;SDS011;6970;51.340;3.240;2022-09-28T17:21:46;1.40;;;1.30;;
13797;SDS011;6970;51.340;3.240;2022-09-28T17:24:13;1.83;;;1.40;;
13797;SDS011;6970;51.340;3.240;2022-09-28T17:26:40;3.03;;;1.70;;
13797;SDS011;6970;51.340;3.240;2022-09-28T17:29:11;1.87;;;1.40;;
13797;SDS011;6970;51.340;3.240;2022-09-28T17:31:43;2.80;;;1.97;;
13797;SDS011;6970;51.340;3.240;2022-09-28T17:34:12;1.70;;;1.60;;
13797;SDS011;6970;51.340;3.240;2022-09-28T17:36:42;2.17;;;1.97;;
13797;SDS011;6970;51.340;3.240;2022-09-28T17:39:14;3.33;;;1.87;;
13797;SDS011;6970;51.340;3.240;2022-09-28T17:41:42;3.77;;;1.97;;
13797;SDS011;6970;51.340;3.240;2022-09-28T17:44:10;2.33;;;2.13;;
13797;SDS011;6970;51.340;3.240;2022-09-28T17:46:42;2.03;;;1.70;;
13797;SDS011;6970;51.340;3.240;2022-09-28T17:49:11;2.70;;;1.47;;
13797;SDS011;6970;51.340;3.240;2022-09-28T17:51:38;1.20;;;1.10;;
13797;SDS011;6970;51.340;3.240;2022-09-28T17:54:06;1.60;;;1.20;;
13797;SDS011;6970;51.340;3.240;2022-09-28T17:56:33;1.30;;;1.17;;
13797;SDS011;6970;51.340;3.240;2022-09-28T17:59:06;2.23;;;1.07;;
13797;SDS011;6970;51.340;3.240;2022-09-28T18:01:37;0.87;;;0.67;;
13797;SDS011;6970;51.340;3.240;2022-09-28T18:04:05;1.73;;;1.30;;
13797;SDS011;6970;51.340;3.240;2022-09-28T18:06:34;19.40;;;11.13;;
13797;SDS011;6970;51.340;3.240;2022-09-28T18:09:02;6.80;;;5.70;;
13797;SDS011;6970;51.340;3.240;2022-09-28T18:11:30;5.60;;;4.77;;
13797;SDS011;6970;51.340;3.240;2022-09-28T18:13:58;6.03;;;4.47;;
13797;SDS011;6970;51.340;3.240;2022-09-28T18:16:26;5.37;;;3.30;;
13797;SDS011;6970;51.340;3.240;2022-09-28T18:18:54;3.50;;;2.90;;
13797;SDS011;6970;51.340;3.240;2022-09-28T18:21:21;3.57;;;2.93;;
13797;SDS011;6970;51.340;3.240;2022-09-28T18:23:48;2.37;;;2.17;;
13797;SDS011;6970;51.340;3.240;2022-09-28T18:26:15;3.80;;;3.50;;
13797;SDS011;6970;51.340;3.240;2022-09-28T18:28:45;3.90;;;2.43;;
13797;SDS011;6970;51.340;3.240;2022-09-28T18:31:13;2.30;;;1.43;;
13797;SDS011;6970;51.340;3.240;2022-09-28T18:33:41;2.97;;;1.30;;
13797;SDS011;6970;51.340;3.240;2022-09-28T18:36:08;3.43;;;0.77;;
13797;SDS011;6970;51.340;3.240;2022-09-28T18:38:35;2.77;;;0.80;;
13797;SDS011;6970;51.340;3.240;2022-09-28T18:41:10;0.83;;;0.50;;
13797;SDS011;6970;51.340;3.240;2022-09-28T18:43:46;1.97;;;0.90;;
13797;SDS011;6970;51.340;3.240;2022-09-28T18:46:15;1.50;;;0.60;;
13797;SDS011;6970;51.340;3.240;2022-09-28T18:48:45;1.73;;;0.57;;
13797;SDS011;6970;51.340;3.240;2022-09-28T18:51:13;2.67;;;0.50;;
13797;SDS011;6970;51.340;3.240;2022-09-28T18:53:40;0.70;;;0.70;;
13797;SDS011;6970;51.340;3.240;2022-09-28T18:56:08;3.97;;;1.93;;
13797;SDS011;6970;51.340;3.240;2022-09-28T18:58:38;4.90;;;1.30;;
13797;SDS011;6970;51.340;3.240;2022-09-28T19:01:07;3.00;;;1.43;;
13797;SDS011;6970;51.340;3.240;2022-09-28T19:03:58;2.03;;;1.93;;
13797;SDS011;6970;51.340;3.240;2022-09-28T19:06:26;2.33;;;2.13;;
13797;SDS011;6970;51.340;3.240;2022-09-28T19:08:54;3.13;;;2.77;;
13797;SDS011;6970;51.340;3.240;2022-09-28T19:11:22;3.13;;;2.90;;
13797;SDS011;6970;51.340;3.240;2022-09-28T19:13:51;8.07;;;3.80;;
13797;SDS011;6970;51.340;3.240;2022-09-28T19:16:20;3.90;;;3.50;;
13797;SDS011;6970;51.340;3.240;2022-09-28T19:18:52;4.33;;;3.93;;
13797;SDS011;6970;51.340;3.240;2022-09-28T19:21:21;9.97;;;5.80;;
13797;SDS011;6970;51.340;3.240;2022-09-28T19:23:48;5.10;;;4.53;;
13797;SDS011;6970;51.340;3.240;2022-09-28T19:28:44;4.43;;;3.90;;
13797;SDS011;6970;51.340;3.240;2022-09-28T19:31:11;4.10;;;3.70;;
13797;SDS011;6970;51.340;3.240;2022-09-28T19:33:38;5.20;;;4.70;;
13797;SDS011;6970;51.340;3.240;2022-09-28T19:36:19;4.43;;;4.03;;
13797;SDS011;6970;51.340;3.240;2022-09-28T19:38:49;5.07;;;4.50;;
13797;SDS011;6970;51.340;3.240;2022-09-28T19:41:19;4.67;;;4.37;;
13797;SDS011;6970;51.340;3.240;2022-09-28T19:46:42;4.27;;;3.53;;
13797;SDS011;6970;51.340;3.240;2022-09-28T19:49:10;3.87;;;3.33;;
13797;SDS011;6970;51.340;3.240;2022-09-28T19:51:38;8.67;;;4.77;;
13797;SDS011;6970;51.340;3.240;2022-09-28T19:54:27;4.63;;;3.63;;
13797;SDS011;6970;51.340;3.240;2022-09-28T19:57:02;3.83;;;3.53;;
13797;SDS011;6970;51.340;3.240;2022-09-28T19:59:33;4.30;;;3.90;;
13797;SDS011;6970;51.340;3.240;2022-09-28T20:02:02;4.20;;;3.67;;
13797;SDS011;6970;51.340;3.240;2022-09-28T20:04:30;3.50;;;3.10;;
13797;SDS011;6970;51.340;3.240;2022-09-28T20:06:57;4.23;;;3.50;;
13797;SDS011;6970;51.340;3.240;2022-09-28T20:09:24;7.60;;;3.77;;
13797;SDS011;6970;51.340;3.240;2022-09-28T20:11:51;6.07;;;4.97;;
13797;SDS011;6970;51.340;3.240;2022-09-28T20:14:18;3.83;;;3.53;;
13797;SDS011;6970;51.340;3.240;2022-09-28T20:16:49;5.27;;;2.90;;
13797;SDS011;6970;51.340;3.240;2022-09-28T20:19:16;3.57;;;2.50;;
13797;SDS011;6970;51.340;3.240;2022-09-28T20:21:46;2.03;;;1.93;;
13797;SDS011;6970;51.340;3.240;2022-09-28T20:24:14;4.17;;;2.40;;
13797;SDS011;6970;51.340;3.240;2022-09-28T20:26:43;3.03;;;2.17;;
13797;SDS011;6970;51.340;3.240;2022-09-28T20:29:11;2.07;;;1.77;;
13797;SDS011;6970;51.340;3.240;2022-09-28T20:31:38;1.87;;;1.77;;
13797;SDS011;6970;51.340;3.240;2022-09-28T20:34:06;1.80;;;1.70;;
13797;SDS011;6970;51.340;3.240;2022-09-28T20:36:33;1.90;;;1.77;;
13797;SDS011;6970;51.340;3.240;2022-09-28T20:39:00;2.40;;;2.20;;
13797;SDS011;6970;51.340;3.240;2022-09-28T20:41:28;2.63;;;2.10;;
13797;SDS011;6970;51.340;3.240;2022-09-28T20:44:02;3.23;;;2.63;;
13797;SDS011;6970;51.340;3.240;2022-09-28T20:46:35;2.57;;;2.30;;
13797;SDS011;6970;51.340;3.240;2022-09-28T20:49:02;3.20;;;2.33;;
13797;SDS011;6970;51.340;3.240;2022-09-28T20:51:30;2.10;;;1.90;;
13797;SDS011;6970;51.340;3.240;2022-09-28T20:53:58;2.20;;;2.00;;
13797;SDS011;6970;51.340;3.240;2022-09-28T20:56:29;1.97;;;1.87;;
13797;SDS011;6970;51.340;3.240;2022-09-28T20:59:03;4.67;;;2.40;;
13797;SDS011;6970;51.340;3.240;2022-09-28T21:01:33;2.37;;;2.17;;
13797;SDS011;6970;51.340;3.240;2022-09-28T21:04:01;2.33;;;2.00;;
13797;SDS011;6970;51.340;3.240;2022-09-28T21:06:34;3.03;;;2.57;;
13797;SDS011;6970;51.340;3.240;2022-09-28T21:09:02;2.50;;;2.27;;
13797;SDS011;6970;51.340;3.240;2022-09-28T21:11:31;2.67;;;2.30;;
13797;SDS011;6970;51.340;3.240;2022-09-28T21:14:02;3.27;;;2.10;;
13797;SDS011;6970;51.340;3.240;2022-09-28T21:16:31;2.80;;;2.27;;
13797;SDS011;6970;51.340;3.240;2022-09-28T21:18:59;4.57;;;2.20;;
13797;SDS011;6970;51.340;3.240;2022-09-28T21:21:27;2.30;;;1.80;;
13797;SDS011;6970;51.340;3.240;2022-09-28T21:23:54;2.07;;;1.93;;
13797;SDS011;6970;51.340;3.240;2022-09-28T21:26:23;3.03;;;2.40;;
13797;SDS011;6970;51.340;3.240;2022-09-28T21:31:26;3.07;;;1.83;;
13797;SDS011;6970;51.340;3.240;2022-09-28T21:33:57;3.57;;;2.20;;
13797;SDS011;6970;51.340;3.240;2022-09-28T21:36:24;1.70;;;1.60;;
13797;SDS011;6970;51.340;3.240;2022-09-28T21:38:51;3.07;;;1.57;;
13797;SDS011;6970;51.340;3.240;2022-09-28T21:41:19;2.10;;;1.53;;